createdAt,value
2022-08-03T00:00:49.557Z,23.15
2022-08-03T00:03:19.366Z,23.14
2022-08-03T00:06:03.913Z,23.07
2022-08-03T00:08:40.115Z,23.08
2022-08-03T00:11:10.151Z,23.00
2022-08-03T00:13:42.428Z,22.92
2022-08-03T00:16:13.424Z,22.93
2022-08-03T00:18:43.647Z,22.93
2022-08-03T00:21:13.650Z,22.83
2022-08-03T00:23:51.537Z,22.68
2022-08-03T00:26:22.355Z,22.76
2022-08-03T00:28:54.697Z,22.67
2022-08-03T00:31:39.839Z,22.60
2022-08-03T00:34:14.449Z,22.48
2022-08-03T00:36:44.135Z,22.38
2022-08-03T00:39:13.823Z,22.42
2022-08-03T00:41:43.530Z,22.36
2022-08-03T00:44:15.810Z,22.38
2022-08-03T00:46:45.510Z,22.32
2022-08-03T00:49:15.326Z,22.29
2022-08-03T00:51:45.114Z,22.37
2022-08-03T00:54:14.921Z,22.27
2022-08-03T00:56:59.728Z,22.42
2022-08-03T00:59:33.363Z,22.41
2022-08-03T01:02:03.068Z,22.32
2022-08-03T01:04:32.830Z,22.32
2022-08-03T01:07:10.977Z,22.32
2022-08-03T01:09:48.991Z,22.40
2022-08-03T01:12:25.338Z,22.28
2022-08-03T01:15:02.987Z,22.39
2022-08-03T01:17:39.678Z,22.40
2022-08-03T01:20:13.749Z,22.28
2022-08-03T01:23:29.223Z,22.18
2022-08-03T01:26:12.601Z,22.06
2022-08-03T01:28:59.982Z,22.25
2022-08-03T01:32:59.325Z,22.23
2022-08-03T01:34:31.128Z,22.16
2022-08-03T01:37:04.354Z,22.13
2022-08-03T01:39:35.842Z,22.10
2022-08-03T01:42:09.021Z,22.10
2022-08-03T01:44:41.921Z,22.03
2022-08-03T01:47:15.403Z,22.01
2022-08-03T01:49:48.132Z,22.02
2022-08-03T01:52:21.337Z,21.97
2022-08-03T01:54:53.573Z,21.94
2022-08-03T01:57:26.154Z,21.80
2022-08-03T02:00:00.005Z,21.85
2022-08-03T02:02:34.839Z,21.79
2022-08-03T02:05:10.739Z,21.36
2022-08-03T02:07:43.626Z,21.66
2022-08-03T02:10:16.188Z,21.65
2022-08-03T02:13:05.645Z,21.65
2022-08-03T02:15:36.577Z,21.61
2022-08-03T02:18:11.460Z,21.63
2022-08-03T02:20:42.364Z,21.62
2022-08-03T02:23:12.584Z,21.63
2022-08-03T02:25:47.522Z,21.66
2022-08-03T02:28:22.093Z,21.58
2022-08-03T02:30:56.267Z,21.58
2022-08-03T02:33:33.039Z,21.40
2022-08-03T02:36:03.847Z,21.36
2022-08-03T02:38:37.758Z,21.47
2022-08-03T02:41:10.727Z,21.45
2022-08-03T02:44:05.902Z,21.37
2022-08-03T02:46:37.825Z,21.29
2022-08-03T02:49:40.689Z,21.35
2022-08-03T02:52:04.274Z,21.25
2022-08-03T02:54:35.931Z,21.40
2022-08-03T02:57:07.229Z,21.28
2022-08-03T02:59:38.353Z,21.25
2022-08-03T03:02:08.697Z,21.32
2022-08-03T03:04:43.147Z,21.39
2022-08-03T03:07:34.003Z,21.27
2022-08-03T03:10:21.996Z,21.17
2022-08-03T03:12:53.950Z,21.13
2022-08-03T03:15:24.298Z,21.06
2022-08-03T03:17:55.505Z,21.05
2022-08-03T03:20:30.213Z,21.08
2022-08-03T03:23:02.386Z,20.97
2022-08-03T03:25:33.481Z,21.05
2022-08-03T03:28:03.488Z,21.04
2022-08-03T03:30:38.072Z,21.04
2022-08-03T03:33:07.954Z,21.01
2022-08-03T03:35:41.322Z,20.97
2022-08-03T03:38:12.273Z,20.95
2022-08-03T03:40:42.169Z,20.92
2022-08-03T03:43:13.278Z,20.95
2022-08-03T03:45:44.434Z,20.97
2022-08-03T03:48:14.414Z,20.89
2022-08-03T03:50:47.242Z,21.00
2022-08-03T03:53:17.322Z,20.92
2022-08-03T03:55:59.007Z,21.03
2022-08-03T03:58:32.099Z,20.99
2022-08-03T04:01:02.065Z,20.98
2022-08-03T04:03:32.052Z,20.98
2022-08-03T04:06:16.810Z,20.98
2022-08-03T04:08:58.974Z,20.87
2022-08-03T04:11:31.785Z,20.97
2022-08-03T04:14:06.422Z,21.04
2022-08-03T04:16:43.424Z,21.06
2022-08-03T04:19:21.203Z,21.07
2022-08-03T04:21:59.186Z,21.05
2022-08-03T04:24:33.404Z,21.02
2022-08-03T04:27:05.365Z,21.00
2022-08-03T04:29:38.507Z,20.88
2022-08-03T04:32:15.345Z,20.91
2022-08-03T04:34:45.484Z,21.00
2022-08-03T04:37:28.030Z,21.07
2022-08-03T04:40:02.032Z,21.21
2022-08-03T04:42:33.933Z,21.25
2022-08-03T04:45:06.420Z,21.29
2022-08-03T04:47:37.072Z,21.30
2022-08-03T04:50:12.465Z,21.30
2022-08-03T04:52:47.044Z,21.50
2022-08-03T04:55:28.349Z,21.55
2022-08-03T04:57:58.209Z,21.55
2022-08-03T05:00:28.893Z,21.59
2022-08-03T05:02:58.920Z,21.68
2022-08-03T05:05:37.852Z,21.86
2022-08-03T05:08:28.025Z,21.91
2022-08-03T05:10:59.379Z,21.99
2022-08-03T05:13:30.390Z,22.06
2022-08-03T05:16:00.411Z,22.14
2022-08-03T05:18:30.089Z,22.20
2022-08-03T05:20:59.772Z,22.19
2022-08-03T05:23:33.239Z,22.27
2022-08-03T05:26:03.021Z,22.33
2022-08-03T05:28:32.755Z,22.32
2022-08-03T05:31:02.440Z,22.35
2022-08-03T05:33:32.188Z,22.50
2022-08-03T05:36:04.426Z,22.51
2022-08-03T05:38:36.930Z,22.69
2022-08-03T05:41:21.523Z,22.70
2022-08-03T05:43:54.324Z,22.84
2022-08-03T05:46:24.824Z,22.88
2022-08-03T05:48:54.723Z,23.02
2022-08-03T05:51:24.595Z,23.00
2022-08-03T05:53:57.907Z,23.30
2022-08-03T05:56:27.857Z,23.46
2022-08-03T05:59:04.226Z,23.71
2022-08-03T06:01:46.813Z,23.88
2022-08-03T06:04:16.628Z,24.12
2022-08-03T06:06:46.450Z,24.38
2022-08-03T06:09:19.012Z,24.42
2022-08-03T06:11:48.698Z,24.69
2022-08-03T06:14:19.478Z,24.97
2022-08-03T06:16:49.277Z,25.16
2022-08-03T06:19:18.948Z,25.29
2022-08-03T06:21:48.654Z,25.53
2022-08-03T06:24:25.072Z,26.07
2022-08-03T06:26:56.020Z,26.19
2022-08-03T06:29:25.793Z,26.40
2022-08-03T06:31:56.536Z,26.49
2022-08-03T06:34:33.305Z,26.22
2022-08-03T06:37:05.185Z,26.04
2022-08-03T06:39:37.450Z,26.11
2022-08-03T06:42:07.559Z,26.14
2022-08-03T06:44:40.644Z,26.31
2022-08-03T06:47:10.385Z,26.46
2022-08-03T06:49:41.561Z,26.68
2022-08-03T06:52:11.416Z,26.76
2022-08-03T06:54:43.726Z,26.84
2022-08-03T06:57:16.705Z,26.59
2022-08-03T07:00:07.339Z,26.79
2022-08-03T07:02:38.237Z,26.55
2022-08-03T07:05:10.342Z,26.66
2022-08-03T07:07:40.792Z,26.88
2022-08-03T07:10:14.331Z,27.05
2022-08-03T07:12:55.586Z,27.20
2022-08-03T07:15:53.953Z,27.52
2022-08-03T07:18:16.953Z,27.78
2022-08-03T07:20:46.641Z,27.90
2022-08-03T07:23:19.120Z,27.90
2022-08-03T07:25:51.806Z,27.94
2022-08-03T07:28:22.680Z,28.17
2022-08-03T07:30:52.510Z,27.93
2022-08-03T07:33:23.177Z,27.92
2022-08-03T07:35:52.909Z,27.94
2022-08-03T07:38:22.593Z,27.75
2022-08-03T07:40:54.910Z,27.87
2022-08-03T07:43:24.553Z,28.03
2022-08-03T07:45:54.306Z,28.05
2022-08-03T07:48:24.171Z,28.17
2022-08-03T07:50:53.923Z,28.07
2022-08-03T07:53:25.777Z,27.77
2022-08-03T07:55:58.096Z,28.16
2022-08-03T07:58:28.825Z,28.44
2022-08-03T08:00:59.568Z,28.57
2022-08-03T08:03:30.305Z,28.48
2022-08-03T08:06:20.602Z,28.48
2022-08-03T08:08:51.382Z,28.68
2022-08-03T08:11:24.149Z,28.79
2022-08-03T08:13:53.878Z,28.85
2022-08-03T08:16:23.591Z,28.64
2022-08-03T08:18:54.385Z,28.67
2022-08-03T08:21:24.242Z,28.71
2022-08-03T08:23:57.943Z,28.85
2022-08-03T08:26:30.306Z,28.83
2022-08-03T08:28:59.941Z,28.82
2022-08-03T08:31:29.607Z,28.74
2022-08-03T08:34:04.097Z,28.95
2022-08-03T08:36:35.783Z,29.13
2022-08-03T08:39:05.563Z,29.19
2022-08-03T08:41:37.925Z,29.37
2022-08-03T08:44:15.816Z,29.19
2022-08-03T08:46:46.856Z,29.01
2022-08-03T08:49:21.450Z,29.65
2022-08-03T08:51:59.536Z,29.78
2022-08-03T08:54:32.556Z,29.87
2022-08-03T08:57:16.508Z,29.81
2022-08-03T08:59:57.440Z,29.94
2022-08-03T09:02:27.441Z,30.10
2022-08-03T09:04:57.754Z,30.09
2022-08-03T09:07:27.757Z,29.88
2022-08-03T09:10:08.499Z,29.72
2022-08-03T09:12:47.049Z,29.91
2022-08-03T09:15:22.176Z,29.99
2022-08-03T09:17:52.408Z,30.03
2022-08-03T09:20:23.025Z,29.82
2022-08-03T09:22:58.946Z,29.88
2022-08-03T09:25:36.340Z,29.84
2022-08-03T09:28:32.338Z,29.90
2022-08-03T09:31:04.562Z,29.74
2022-08-03T09:33:36.171Z,30.00
2022-08-03T09:36:06.146Z,30.33
2022-08-03T09:38:35.824Z,30.48
2022-08-03T09:41:06.572Z,30.29
2022-08-03T09:43:51.689Z,30.39
2022-08-03T09:46:21.459Z,30.33
2022-08-03T09:48:51.171Z,30.27
2022-08-03T09:52:27.328Z,30.29
2022-08-03T09:54:28.941Z,30.60
2022-08-03T09:56:59.407Z,30.86
2022-08-03T09:59:34.574Z,30.82
2022-08-03T10:02:04.447Z,30.83
2022-08-03T10:04:34.133Z,30.94
2022-08-03T10:07:09.513Z,31.19
2022-08-03T10:09:39.840Z,31.22
2022-08-03T10:12:14.686Z,31.48
2022-08-03T10:14:46.968Z,31.69
2022-08-03T10:17:16.845Z,31.57
2022-08-03T10:19:46.703Z,31.38
2022-08-03T10:22:18.787Z,31.51
2022-08-03T10:24:55.894Z,31.28
2022-08-03T10:27:26.855Z,31.45
2022-08-03T10:30:03.487Z,31.45
2022-08-03T10:32:36.883Z,31.59
2022-08-03T10:35:20.948Z,31.74
2022-08-03T10:37:58.671Z,31.90
2022-08-03T10:40:49.476Z,31.90
2022-08-03T10:43:23.659Z,31.85
2022-08-03T10:45:56.089Z,31.94
2022-08-03T10:48:26.706Z,31.75
2022-08-03T10:50:56.634Z,31.86
2022-08-03T10:53:38.475Z,31.70
2022-08-03T10:56:21.663Z,31.81
2022-08-03T10:59:11.232Z,32.06
2022-08-03T11:01:58.324Z,31.88
2022-08-03T11:04:30.034Z,31.69
2022-08-03T11:07:21.725Z,31.81
2022-08-03T11:09:53.265Z,31.91
2022-08-03T11:12:30.564Z,32.05
2022-08-03T11:15:02.613Z,32.32
2022-08-03T11:17:46.270Z,32.39
2022-08-03T11:20:49.518Z,32.49
2022-08-03T11:24:02.850Z,32.53
2022-08-03T11:26:18.358Z,32.49
2022-08-03T11:28:49.408Z,32.55
2022-08-03T11:31:50.351Z,32.49
2022-08-03T11:34:24.724Z,32.67
2022-08-03T11:37:23.596Z,32.52
2022-08-03T11:39:57.318Z,32.51
2022-08-03T11:42:44.084Z,32.54
2022-08-03T11:45:13.863Z,32.28
2022-08-03T11:47:50.930Z,32.31
2022-08-03T11:50:24.631Z,32.80
2022-08-03T11:52:54.993Z,32.89
2022-08-03T11:55:28.982Z,33.07
2022-08-03T11:59:03.403Z,33.14
2022-08-03T12:00:52.669Z,32.94
2022-08-03T12:03:23.763Z,32.68
2022-08-03T12:05:57.215Z,32.67
2022-08-03T12:08:35.445Z,32.65
2022-08-03T12:11:07.754Z,32.74
2022-08-03T12:14:43.765Z,32.83
2022-08-03T12:16:32.426Z,32.84
2022-08-03T12:19:04.054Z,33.14
2022-08-03T12:21:36.593Z,33.14
2022-08-03T12:24:07.703Z,33.16
2022-08-03T12:26:58.351Z,33.28
2022-08-03T12:29:30.067Z,33.20
2022-08-03T12:32:00.036Z,33.09
2022-08-03T12:34:50.924Z,33.35
2022-08-03T12:37:25.918Z,33.31
2022-08-03T12:40:02.074Z,33.43
2022-08-03T12:42:36.503Z,33.64
2022-08-03T12:45:21.321Z,33.59
2022-08-03T12:47:55.715Z,33.66
2022-08-03T12:50:33.293Z,33.62
2022-08-03T12:53:08.907Z,33.62
2022-08-03T12:56:04.850Z,33.39
2022-08-03T12:58:35.589Z,33.71
2022-08-03T13:01:10.325Z,33.77
2022-08-03T13:03:45.809Z,33.81
2022-08-03T13:06:21.872Z,33.77
2022-08-03T13:09:05.102Z,33.75
2022-08-03T13:11:57.931Z,33.55
2022-08-03T13:14:26.212Z,33.59
2022-08-03T13:16:55.960Z,33.70
2022-08-03T13:19:25.684Z,33.77
2022-08-03T13:22:04.403Z,34.61
2022-08-03T13:24:38.000Z,34.04
2022-08-03T13:28:01.011Z,33.91
2022-08-03T13:29:58.842Z,33.99
2022-08-03T13:32:28.688Z,33.90
2022-08-03T13:34:58.623Z,33.87
2022-08-03T13:37:28.602Z,33.94
2022-08-03T13:40:02.883Z,33.95
2022-08-03T13:42:34.549Z,34.06
2022-08-03T13:45:06.268Z,34.14
2022-08-03T13:47:37.017Z,34.07
2022-08-03T13:50:08.360Z,34.12
2022-08-03T13:52:39.107Z,34.30
2022-08-03T13:55:12.593Z,34.41
2022-08-03T13:58:05.301Z,33.64
2022-08-03T14:00:32.507Z,33.29
2022-08-03T14:03:12.607Z,33.46
2022-08-03T14:05:44.182Z,33.62
2022-08-03T14:08:14.869Z,33.95
2022-08-03T14:10:47.867Z,34.21
2022-08-03T14:13:18.333Z,34.31
2022-08-03T14:15:49.898Z,34.24
2022-08-03T14:18:27.593Z,34.12
2022-08-03T14:21:05.054Z,34.42
2022-08-03T14:23:36.222Z,34.27
2022-08-03T14:26:09.535Z,34.38
2022-08-03T14:28:39.468Z,34.46
2022-08-03T14:32:10.276Z,34.28
2022-08-03T14:33:59.678Z,34.52
2022-08-03T14:36:29.387Z,34.51
2022-08-03T14:39:01.401Z,34.39
2022-08-03T14:41:34.140Z,34.53
2022-08-03T14:44:03.849Z,34.50
2022-08-03T14:46:34.111Z,34.44
2022-08-03T14:50:34.780Z,34.14
2022-08-03T14:51:55.103Z,34.04
2022-08-03T14:54:25.305Z,34.51
2022-08-03T14:56:57.740Z,34.43
2022-08-03T14:59:28.809Z,34.28
2022-08-03T15:02:23.892Z,33.90
2022-08-03T15:04:53.896Z,33.79
2022-08-03T15:07:23.722Z,34.21
2022-08-03T15:09:54.385Z,34.32
2022-08-03T15:12:26.717Z,34.42
2022-08-03T15:14:56.510Z,34.42
2022-08-03T15:17:26.196Z,34.44
2022-08-03T15:20:03.978Z,34.38
2022-08-03T15:22:46.757Z,34.18
2022-08-03T15:26:31.914Z,34.16
2022-08-03T15:28:08.915Z,34.26
2022-08-03T15:30:38.680Z,34.35
2022-08-03T15:33:09.076Z,34.29
2022-08-03T15:35:40.035Z,34.37
2022-08-03T15:38:09.923Z,34.33
2022-08-03T15:40:39.948Z,34.06
2022-08-03T15:43:12.398Z,33.79
2022-08-03T15:45:43.013Z,33.46
2022-08-03T15:48:13.035Z,33.63
2022-08-03T15:50:43.942Z,33.66
2022-08-03T15:53:13.754Z,33.68
2022-08-03T15:55:43.862Z,33.33
2022-08-03T15:59:04.411Z,33.49
2022-08-03T16:01:08.197Z,33.90
2022-08-03T16:03:38.451Z,33.79
2022-08-03T16:06:10.010Z,34.04
2022-08-03T16:08:39.764Z,33.73
2022-08-03T16:11:09.497Z,33.93
2022-08-03T16:14:13.210Z,34.00
2022-08-03T16:16:31.535Z,34.00
2022-08-03T16:19:05.611Z,33.89
2022-08-03T16:21:42.067Z,33.92
2022-08-03T16:24:19.990Z,33.48
2022-08-03T16:26:57.849Z,32.64
2022-08-03T16:29:32.882Z,33.72
2022-08-03T16:32:09.359Z,33.71
2022-08-03T16:34:41.528Z,33.68
2022-08-03T16:37:37.138Z,33.70
2022-08-03T16:40:01.214Z,33.71
2022-08-03T16:42:31.007Z,33.62
2022-08-03T16:45:03.335Z,33.79
2022-08-03T16:47:33.394Z,33.71
2022-08-03T16:50:08.961Z,33.43
2022-08-03T16:52:42.842Z,33.73
2022-08-03T16:55:18.500Z,33.66
2022-08-03T16:58:09.109Z,33.65
2022-08-03T17:00:46.412Z,33.61
2022-08-03T17:03:20.683Z,33.46
2022-08-03T17:05:54.128Z,33.72
2022-08-03T17:08:29.526Z,33.67
2022-08-03T17:11:00.402Z,33.38
2022-08-03T17:13:39.999Z,33.66
2022-08-03T17:16:15.401Z,33.30
2022-08-03T17:18:54.009Z,33.35
2022-08-03T17:21:29.560Z,33.28
2022-08-03T17:24:12.008Z,33.46
2022-08-03T17:26:45.125Z,33.49
2022-08-03T17:29:17.085Z,33.44
2022-08-03T17:31:50.079Z,32.86
2022-08-03T17:34:20.630Z,33.16
2022-08-03T17:37:07.039Z,33.02
2022-08-03T17:39:59.573Z,32.97
2022-08-03T17:42:33.271Z,33.22
2022-08-03T17:45:06.614Z,33.05
2022-08-03T17:47:41.529Z,33.03
2022-08-03T17:50:24.724Z,32.90
2022-08-03T17:53:23.776Z,32.91
2022-08-03T17:56:36.170Z,32.91
2022-08-03T17:59:08.505Z,32.78
2022-08-03T18:02:03.749Z,32.72
2022-08-03T18:04:44.457Z,32.69
2022-08-03T18:07:40.938Z,32.52
2022-08-03T18:10:15.356Z,32.21
2022-08-03T18:12:53.467Z,32.76
2022-08-03T18:15:31.971Z,32.52
2022-08-03T18:18:10.964Z,32.60
2022-08-03T18:20:45.734Z,32.51
2022-08-03T18:23:24.996Z,32.30
2022-08-03T18:26:12.279Z,32.28
2022-08-03T18:28:42.538Z,32.14
2022-08-03T18:31:59.503Z,32.11
2022-08-03T18:34:18.954Z,31.68
2022-08-03T18:36:58.771Z,31.61
2022-08-03T18:39:30.913Z,31.79
2022-08-03T18:42:02.715Z,31.47
2022-08-03T18:44:53.313Z,31.60
2022-08-03T18:47:50.581Z,31.34
2022-08-03T18:50:28.138Z,31.38
2022-08-03T18:56:05.518Z,31.24
2022-08-03T18:58:40.803Z,31.17
2022-08-03T19:02:00.361Z,31.05
2022-08-03T19:04:14.181Z,30.95
2022-08-03T19:06:48.470Z,30.85
2022-08-03T19:09:31.945Z,30.06
2022-08-03T19:12:30.816Z,30.68
2022-08-03T19:15:06.339Z,30.56
2022-08-03T19:17:50.370Z,30.51
2022-08-03T19:20:24.997Z,30.42
2022-08-03T19:22:56.609Z,30.29
2022-08-03T19:25:34.917Z,30.05
2022-08-03T19:28:07.249Z,29.97
2022-08-03T19:30:40.705Z,29.86
2022-08-03T19:33:18.499Z,29.61
2022-08-03T19:35:55.129Z,29.71
2022-08-03T19:38:28.531Z,29.61
2022-08-03T19:41:05.779Z,29.69
2022-08-03T19:43:53.513Z,29.62
2022-08-03T19:46:31.061Z,29.52
2022-08-03T19:49:10.392Z,29.35
2022-08-03T19:52:01.961Z,29.31
2022-08-03T19:57:36.678Z,29.04
2022-08-03T20:00:11.908Z,28.94
2022-08-03T20:02:43.342Z,28.60
2022-08-03T20:05:15.545Z,28.78
2022-08-03T20:07:47.949Z,28.84
2022-08-03T20:10:19.408Z,28.79
2022-08-03T20:12:52.430Z,28.68
2022-08-03T20:15:31.895Z,28.73
2022-08-03T20:18:02.493Z,28.70
2022-08-03T20:20:35.422Z,28.63
2022-08-03T20:23:09.976Z,28.54
2022-08-03T20:25:55.722Z,28.48
2022-08-03T20:28:34.353Z,28.48
2022-08-03T20:31:04.196Z,28.34
2022-08-03T20:33:46.212Z,28.28
2022-08-03T20:36:19.124Z,28.42
2022-08-03T20:38:50.994Z,28.30
2022-08-03T20:41:22.404Z,28.26
2022-08-03T20:43:55.048Z,28.14
2022-08-03T20:46:33.839Z,28.03
2022-08-03T20:49:11.629Z,27.87
2022-08-03T20:51:50.158Z,27.84
2022-08-03T20:54:31.227Z,27.71
2022-08-03T20:57:04.278Z,27.64
2022-08-03T20:59:50.598Z,27.64
2022-08-03T21:02:30.426Z,27.43
2022-08-03T21:05:03.693Z,27.35
2022-08-03T21:10:51.321Z,27.00
2022-08-03T21:13:03.181Z,29.15
2022-08-03T21:13:11.012Z,31.34
2022-08-03T21:13:13.955Z,27.00
2022-08-03T21:13:26.101Z,27.45
2022-08-03T21:16:13.447Z,27.44
2022-08-03T21:18:49.053Z,27.31
2022-08-03T21:21:22.483Z,27.23
2022-08-03T21:23:55.094Z,27.24
2022-08-03T21:26:27.461Z,27.25
2022-08-03T21:29:00.754Z,27.22
2022-08-03T21:31:33.223Z,27.04
2022-08-03T21:34:05.388Z,27.14
2022-08-03T21:36:37.095Z,26.96
2022-08-03T21:39:09.048Z,27.06
2022-08-03T21:41:41.498Z,27.03
2022-08-03T21:44:11.755Z,27.02
2022-08-03T21:46:45.594Z,26.87
2022-08-03T21:50:04.615Z,26.85
2022-08-03T21:52:07.890Z,26.75
2022-08-03T21:54:40.171Z,26.65
2022-08-03T21:57:16.669Z,26.56
2022-08-03T21:59:51.012Z,26.33
2022-08-03T22:02:26.276Z,26.30
2022-08-03T22:04:57.181Z,26.29
2022-08-03T22:07:28.464Z,26.27
2022-08-03T22:09:59.762Z,26.15
2022-08-03T22:12:32.864Z,26.14
2022-08-03T22:15:05.016Z,26.18
2022-08-03T22:17:55.732Z,26.20
2022-08-03T22:20:28.736Z,26.03
2022-08-03T22:23:02.658Z,26.07
2022-08-03T22:25:35.251Z,26.10
2022-08-03T22:28:08.496Z,25.86
2022-08-03T22:30:39.402Z,26.08
2022-08-03T22:33:13.759Z,25.94
2022-08-03T22:35:47.889Z,25.92
2022-08-03T22:38:19.411Z,25.97
2022-08-03T22:40:51.440Z,25.82
2022-08-03T22:43:25.412Z,25.83
2022-08-03T22:46:09.776Z,25.71
2022-08-03T22:48:44.962Z,25.37
2022-08-03T22:51:14.696Z,25.50
2022-08-03T22:53:44.729Z,25.55
2022-08-03T22:56:15.358Z,25.61
2022-08-03T22:58:45.134Z,25.51
2022-08-03T23:01:21.733Z,25.40
2022-08-03T23:04:02.358Z,25.40
2022-08-03T23:06:37.038Z,25.32
2022-08-03T23:09:08.314Z,25.28
2022-08-03T23:11:45.199Z,25.34
2022-08-03T23:14:17.952Z,25.35
2022-08-03T23:16:49.884Z,25.27
2022-08-03T23:19:25.441Z,25.23
2022-08-03T23:22:02.744Z,25.27
2022-08-03T23:24:38.148Z,24.95
2022-08-03T23:27:10.878Z,25.19
2022-08-03T23:29:44.973Z,25.27
2022-08-03T23:32:16.413Z,25.24
2022-08-03T23:35:04.160Z,25.29
2022-08-03T23:38:21.666Z,25.05
2022-08-03T23:40:29.025Z,25.03
2022-08-03T23:42:59.811Z,25.05
2022-08-03T23:45:30.425Z,24.99
2022-08-03T23:48:00.147Z,25.04
2022-08-03T23:50:46.583Z,25.02
2022-08-03T23:53:21.114Z,24.96
2022-08-03T23:56:14.093Z,24.77
2022-08-03T23:59:02.864Z,24.80
